Terminal Aerodrome Forecast
Issued by NWS Pendleton, OR

Home | Current Version | Previous Version | Text Only | Print | Product List | Glossary On
Versions: 1 2 3 4 5 6 7 8 9 10 11 12 13 14 15 16 17 18 19 20 21
000
FTUS46 KPDT 211700
TAFPDT
TAF
KPDT 211720Z 2118/2218 26020G30KT P6SM SCT060 OVC100
     FM220000 26015G20KT P6SM BKN060 OVC100
     FM220900 26010KT P6SM OVC050=

USA.gov is the U.S. government's official web portal to all federal, state and local government web resources and services.